sensor_id;sensor_type;location;lat;lon;timestamp;pressure;altitude;pressure_sealevel;temperature;humidity
5651;BME280;40241;52.684;9.758;2024-01-10T00:02:13;103216.97;;;-7.44;56.95
5651;BME280;40241;52.684;9.758;2024-01-10T00:04:39;103203.72;;;-7.49;56.85
5651;BME280;40241;52.684;9.758;2024-01-10T00:07:04;103194.84;;;-7.61;57.03
5651;BME280;40241;52.684;9.758;2024-01-10T00:09:30;103190.31;;;-7.69;57.23
5651;BME280;40241;52.684;9.758;2024-01-10T00:11:55;103190.66;;;-7.71;57.54
5651;BME280;40241;52.684;9.758;2024-01-10T00:14:20;103179.09;;;-7.71;57.47
5651;BME280;40241;52.684;9.758;2024-01-10T00:16:46;103185.16;;;-7.74;57.62
5651;BME280;40241;52.684;9.758;2024-01-10T00:19:11;103188.50;;;-7.77;57.88
5651;BME280;40241;52.684;9.758;2024-01-10T00:21:36;103178.06;;;-7.79;57.85
5651;BME280;40241;52.684;9.758;2024-01-10T00:24:02;103173.16;;;-7.77;57.72
5651;BME280;40241;52.684;9.758;2024-01-10T00:26:27;103174.84;;;-7.72;57.73
5651;BME280;40241;52.684;9.758;2024-01-10T00:28:52;103177.00;;;-7.66;57.71
5651;BME280;40241;52.684;9.758;2024-01-10T00:31:18;103166.25;;;-7.66;57.61
5651;BME280;40241;52.684;9.758;2024-01-10T00:33:43;103169.28;;;-7.67;57.60
5651;BME280;40241;52.684;9.758;2024-01-10T00:36:08;103165.28;;;-7.61;57.64
5651;BME280;40241;52.684;9.758;2024-01-10T00:38:34;103166.84;;;-7.60;57.74
5651;BME280;40241;52.684;9.758;2024-01-10T00:40:59;103170.44;;;-7.56;57.71
5651;BME280;40241;52.684;9.758;2024-01-10T00:43:24;103175.16;;;-7.53;57.54
5651;BME280;40241;52.684;9.758;2024-01-10T00:45:50;103170.38;;;-7.48;57.44
5651;BME280;40241;52.684;9.758;2024-01-10T00:48:15;103175.97;;;-7.41;57.75
5651;BME280;40241;52.684;9.758;2024-01-10T00:50:42;103176.56;;;-7.35;57.46
5651;BME280;40241;52.684;9.758;2024-01-10T00:53:09;103174.44;;;-7.30;57.37
5651;BME280;40241;52.684;9.758;2024-01-10T00:55:34;103175.22;;;-7.29;57.47
5651;BME280;40241;52.684;9.758;2024-01-10T00:58:00;103176.13;;;-7.37;57.46
5651;BME280;40241;52.684;9.758;2024-01-10T01:00:25;103167.72;;;-7.36;57.40
5651;BME280;40241;52.684;9.758;2024-01-10T01:02:51;103163.66;;;-7.42;57.32
5651;BME280;40241;52.684;9.758;2024-01-10T01:05:17;103163.06;;;-7.47;57.50
5651;BME280;40241;52.684;9.758;2024-01-10T01:07:42;103173.38;;;-7.49;57.34
5651;BME280;40241;52.684;9.758;2024-01-10T01:10:08;103160.59;;;-7.52;57.36
5651;BME280;40241;52.684;9.758;2024-01-10T01:12:37;103164.28;;;-7.57;57.51
5651;BME280;40241;52.684;9.758;2024-01-10T01:15:03;103169.06;;;-7.62;57.34
5651;BME280;40241;52.684;9.758;2024-01-10T01:17:28;103165.91;;;-7.64;57.60
5651;BME280;40241;52.684;9.758;2024-01-10T01:19:54;103163.38;;;-7.61;57.60
5651;BME280;40241;52.684;9.758;2024-01-10T01:22:19;103165.28;;;-7.61;57.56
5651;BME280;40241;52.684;9.758;2024-01-10T01:24:44;103158.00;;;-7.61;57.54
5651;BME280;40241;52.684;9.758;2024-01-10T01:27:10;103161.34;;;-7.64;57.54
5651;BME280;40241;52.684;9.758;2024-01-10T01:29:35;103150.78;;;-7.69;57.46
5651;BME280;40241;52.684;9.758;2024-01-10T01:32:00;103145.31;;;-7.72;57.58
5651;BME280;40241;52.684;9.758;2024-01-10T01:34:26;103142.28;;;-7.71;57.57
5651;BME280;40241;52.684;9.758;2024-01-10T01:36:51;103146.53;;;-7.70;57.59
5651;BME280;40241;52.684;9.758;2024-01-10T01:39:17;103145.63;;;-7.74;57.69
5651;BME280;40241;52.684;9.758;2024-01-10T01:41:43;103158.72;;;-7.72;57.61
5651;BME280;40241;52.684;9.758;2024-01-10T01:44:08;103156.63;;;-7.67;57.79
5651;BME280;40241;52.684;9.758;2024-01-10T01:46:34;103161.78;;;-7.62;57.92
5651;BME280;40241;52.684;9.758;2024-01-10T01:48:59;103146.56;;;-7.58;57.61
5651;BME280;40241;52.684;9.758;2024-01-10T01:51:27;103154.00;;;-7.55;57.43
5651;BME280;40241;52.684;9.758;2024-01-10T01:53:53;103155.53;;;-7.54;57.41
5651;BME280;40241;52.684;9.758;2024-01-10T01:56:20;103153.00;;;-7.50;57.45
5651;BME280;40241;52.684;9.758;2024-01-10T01:58:46;103153.00;;;-7.50;57.38
5651;BME280;40241;52.684;9.758;2024-01-10T02:01:13;103154.34;;;-7.44;57.57
5651;BME280;40241;52.684;9.758;2024-01-10T02:03:39;103155.69;;;-7.50;57.17
5651;BME280;40241;52.684;9.758;2024-01-10T02:06:04;103144.22;;;-7.59;57.06
5651;BME280;40241;52.684;9.758;2024-01-10T02:08:32;103147.66;;;-7.71;57.40
5651;BME280;40241;52.684;9.758;2024-01-10T02:10:58;103146.63;;;-7.78;57.54
5651;BME280;40241;52.684;9.758;2024-01-10T02:13:24;103157.69;;;-7.80;57.61
5651;BME280;40241;52.684;9.758;2024-01-10T02:15:50;103155.25;;;-7.73;57.72
5651;BME280;40241;52.684;9.758;2024-01-10T02:18:15;103153.34;;;-7.72;57.70
5651;BME280;40241;52.684;9.758;2024-01-10T02:20:46;103150.66;;;-7.72;57.48
5651;BME280;40241;52.684;9.758;2024-01-10T02:23:11;103159.19;;;-7.70;57.50
5651;BME280;40241;52.684;9.758;2024-01-10T02:25:37;103152.69;;;-7.69;57.54
5651;BME280;40241;52.684;9.758;2024-01-10T02:28:03;103158.53;;;-7.67;57.47
5651;BME280;40241;52.684;9.758;2024-01-10T02:30:30;103155.97;;;-7.64;57.29
5651;BME280;40241;52.684;9.758;2024-01-10T02:32:55;103156.75;;;-7.63;57.31
5651;BME280;40241;52.684;9.758;2024-01-10T02:35:21;103161.53;;;-7.69;57.40
5651;BME280;40241;52.684;9.758;2024-01-10T02:37:46;103168.34;;;-7.71;57.31
5651;BME280;40241;52.684;9.758;2024-01-10T02:40:11;103165.22;;;-7.73;57.39
5651;BME280;40241;52.684;9.758;2024-01-10T02:42:37;103150.00;;;-7.69;57.43
5651;BME280;40241;52.684;9.758;2024-01-10T02:45:03;103152.22;;;-7.71;57.33
5651;BME280;40241;52.684;9.758;2024-01-10T02:47:29;103166.78;;;-7.72;57.34
5651;BME280;40241;52.684;9.758;2024-01-10T02:49:54;103154.91;;;-7.71;57.44
5651;BME280;40241;52.684;9.758;2024-01-10T02:52:19;103160.44;;;-7.68;57.48
5651;BME280;40241;52.684;9.758;2024-01-10T02:54:45;103160.09;;;-7.66;57.57
5651;BME280;40241;52.684;9.758;2024-01-10T02:57:11;103154.28;;;-7.68;57.25
5651;BME280;40241;52.684;9.758;2024-01-10T02:59:36;103154.34;;;-7.77;57.45
5651;BME280;40241;52.684;9.758;2024-01-10T03:02:01;103157.38;;;-7.78;57.30
5651;BME280;40241;52.684;9.758;2024-01-10T03:04:27;103161.94;;;-7.79;57.21
5651;BME280;40241;52.684;9.758;2024-01-10T03:06:52;103158.94;;;-7.77;57.25
5651;BME280;40241;52.684;9.758;2024-01-10T03:09:17;103155.13;;;-7.76;57.47
5651;BME280;40241;52.684;9.758;2024-01-10T03:11:43;103150.22;;;-7.74;57.44
5651;BME280;40241;52.684;9.758;2024-01-10T03:14:09;103144.69;;;-7.78;57.21
5651;BME280;40241;52.684;9.758;2024-01-10T03:16:35;103148.84;;;-7.80;57.20
5651;BME280;40241;52.684;9.758;2024-01-10T03:19:00;103138.16;;;-7.89;57.00
5651;BME280;40241;52.684;9.758;2024-01-10T03:21:26;103137.59;;;-7.94;57.17
5651;BME280;40241;52.684;9.758;2024-01-10T03:23:59;103136.47;;;-7.93;57.28
5651;BME280;40241;52.684;9.758;2024-01-10T03:26:25;103143.41;;;-7.92;57.36
5651;BME280;40241;52.684;9.758;2024-01-10T03:28:51;103142.03;;;-7.98;57.01
5651;BME280;40241;52.684;9.758;2024-01-10T03:31:17;103139.88;;;-8.05;57.16
5651;BME280;40241;52.684;9.758;2024-01-10T03:33:42;103142.91;;;-8.07;57.11
5651;BME280;40241;52.684;9.758;2024-01-10T03:36:13;103123.97;;;-8.10;57.31
5651;BME280;40241;52.684;9.758;2024-01-10T03:38:39;103119.78;;;-8.20;56.96
5651;BME280;40241;52.684;9.758;2024-01-10T03:41:04;103118.84;;;-8.24;57.28
5651;BME280;40241;52.684;9.758;2024-01-10T03:43:29;103114.72;;;-8.21;57.45
5651;BME280;40241;52.684;9.758;2024-01-10T03:45:56;103120.78;;;-8.24;57.39
5651;BME280;40241;52.684;9.758;2024-01-10T03:48:22;103115.72;;;-8.26;57.17
5651;BME280;40241;52.684;9.758;2024-01-10T03:50:47;103117.81;;;-8.31;57.02
5651;BME280;40241;52.684;9.758;2024-01-10T03:53:12;103116.09;;;-8.36;57.17
5651;BME280;40241;52.684;9.758;2024-01-10T03:55:37;103115.97;;;-8.39;57.23
5651;BME280;40241;52.684;9.758;2024-01-10T03:58:04;103116.28;;;-8.41;57.12
5651;BME280;40241;52.684;9.758;2024-01-10T04:00:29;103114.41;;;-8.40;57.29
5651;BME280;40241;52.684;9.758;2024-01-10T04:02:55;103114.91;;;-8.47;57.16
5651;BME280;40241;52.684;9.758;2024-01-10T04:05:20;103108.75;;;-8.47;57.06
5651;BME280;40241;52.684;9.758;2024-01-10T04:07:46;103121.06;;;-8.46;57.33
5651;BME280;40241;52.684;9.758;2024-01-10T04:10:13;103114.72;;;-8.42;57.33
5651;BME280;40241;52.684;9.758;2024-01-10T04:12:45;103118.66;;;-8.39;57.39
5651;BME280;40241;52.684;9.758;2024-01-10T04:15:11;103114.28;;;-8.44;57.29
5651;BME280;40241;52.684;9.758;2024-01-10T04:17:37;103113.53;;;-8.53;56.86
5651;BME280;40241;52.684;9.758;2024-01-10T04:20:03;103109.94;;;-8.57;57.46
5651;BME280;40241;52.684;9.758;2024-01-10T04:22:29;103102.81;;;-8.53;57.13
5651;BME280;40241;52.684;9.758;2024-01-10T04:24:59;103100.25;;;-8.49;57.14
5651;BME280;40241;52.684;9.758;2024-01-10T04:27:25;103097.75;;;-8.54;57.11
5651;BME280;40241;52.684;9.758;2024-01-10T04:29:50;103097.16;;;-8.60;57.13
5651;BME280;40241;52.684;9.758;2024-01-10T04:32:16;103094.66;;;-8.65;57.12
5651;BME280;40241;52.684;9.758;2024-01-10T04:34:41;103099.63;;;-8.75;57.15
5651;BME280;40241;52.684;9.758;2024-01-10T04:37:06;103099.03;;;-8.81;57.22
5651;BME280;40241;52.684;9.758;2024-01-10T04:39:33;103098.38;;;-8.78;57.63
5651;BME280;40241;52.684;9.758;2024-01-10T04:41:58;103092.81;;;-8.73;57.50
5651;BME280;40241;52.684;9.758;2024-01-10T04:44:24;103089.06;;;-8.81;57.09
5651;BME280;40241;52.684;9.758;2024-01-10T04:46:49;103085.34;;;-8.88;57.30
5651;BME280;40241;52.684;9.758;2024-01-10T04:49:14;103086.19;;;-8.96;57.17
5651;BME280;40241;52.684;9.758;2024-01-10T04:51:40;103083.66;;;-9.01;57.31
5651;BME280;40241;52.684;9.758;2024-01-10T04:54:05;103084.31;;;-9.04;57.54
5651;BME280;40241;52.684;9.758;2024-01-10T04:56:30;103091.25;;;-9.03;57.63
5651;BME280;40241;52.684;9.758;2024-01-10T04:58:56;103085.38;;;-8.97;57.48
5651;BME280;40241;52.684;9.758;2024-01-10T05:01:21;103081.06;;;-8.89;57.82
5651;BME280;40241;52.684;9.758;2024-01-10T05:03:47;103088.81;;;-8.88;57.68
5651;BME280;40241;52.684;9.758;2024-01-10T05:06:12;103091.16;;;-8.86;57.57
5651;BME280;40241;52.684;9.758;2024-01-10T05:08:37;103085.28;;;-8.79;57.88
5651;BME280;40241;52.684;9.758;2024-01-10T05:11:03;103091.22;;;-8.74;57.75
5651;BME280;40241;52.684;9.758;2024-01-10T05:13:29;103088.84;;;-8.67;57.37
5651;BME280;40241;52.684;9.758;2024-01-10T05:15:54;103093.28;;;-8.71;57.07
5651;BME280;40241;52.684;9.758;2024-01-10T05:18:20;103100.59;;;-8.80;57.20
5651;BME280;40241;52.684;9.758;2024-01-10T05:20:46;103075.66;;;-8.81;57.24
5651;BME280;40241;52.684;9.758;2024-01-10T05:23:11;103082.72;;;-8.76;57.27
5651;BME280;40241;52.684;9.758;2024-01-10T05:25:36;103079.75;;;-8.74;57.23
5651;BME280;40241;52.684;9.758;2024-01-10T05:28:02;103079.13;;;-8.80;57.03
5651;BME280;40241;52.684;9.758;2024-01-10T05:30:27;103083.69;;;-8.81;57.38
5651;BME280;40241;52.684;9.758;2024-01-10T05:32:53;103086.06;;;-8.79;57.37
5651;BME280;40241;52.684;9.758;2024-01-10T05:35:18;103072.97;;;-8.81;57.34
5651;BME280;40241;52.684;9.758;2024-01-10T05:37:43;103078.94;;;-8.75;57.33
5651;BME280;40241;52.684;9.758;2024-01-10T05:40:09;103089.50;;;-8.70;57.33
5651;BME280;40241;52.684;9.758;2024-01-10T05:42:34;103099.25;;;-8.65;57.40
5651;BME280;40241;52.684;9.758;2024-01-10T05:45:00;103097.03;;;-8.63;57.32
5651;BME280;40241;52.684;9.758;2024-01-10T05:47:27;103106.53;;;-8.66;56.98
5651;BME280;40241;52.684;9.758;2024-01-10T05:49:53;103103.03;;;-8.66;57.35
5651;BME280;40241;52.684;9.758;2024-01-10T05:52:19;103106.38;;;-8.69;57.13
5651;BME280;40241;52.684;9.758;2024-01-10T05:54:45;103108.47;;;-8.75;57.12
5651;BME280;40241;52.684;9.758;2024-01-10T05:57:10;103109.75;;;-8.81;57.05
5651;BME280;40241;52.684;9.758;2024-01-10T05:59:38;103107.88;;;-8.89;56.91
5651;BME280;40241;52.684;9.758;2024-01-10T06:02:03;103104.75;;;-8.91;57.29
5651;BME280;40241;52.684;9.758;2024-01-10T06:04:28;103106.19;;;-8.94;57.09
5651;BME280;40241;52.684;9.758;2024-01-10T06:07:00;103111.69;;;-8.90;57.43
5651;BME280;40241;52.684;9.758;2024-01-10T06:09:25;103104.09;;;-8.88;57.42
5651;BME280;40241;52.684;9.758;2024-01-10T06:11:51;103105.81;;;-8.84;57.14
5651;BME280;40241;52.684;9.758;2024-01-10T06:14:16;103103.72;;;-8.78;57.13
5651;BME280;40241;52.684;9.758;2024-01-10T06:16:42;103110.00;;;-8.74;57.55
5651;BME280;40241;52.684;9.758;2024-01-10T06:19:09;103097.06;;;-8.72;56.98
5651;BME280;40241;52.684;9.758;2024-01-10T06:21:35;103100.88;;;-8.73;57.05
5651;BME280;40241;52.684;9.758;2024-01-10T06:24:01;103091.44;;;-8.79;57.08
5651;BME280;40241;52.684;9.758;2024-01-10T06:26:26;103091.28;;;-8.83;57.12
5651;BME280;40241;52.684;9.758;2024-01-10T06:28:51;103088.03;;;-8.88;57.21
5651;BME280;40241;52.684;9.758;2024-01-10T06:31:16;103082.50;;;-8.92;57.20
5651;BME280;40241;52.684;9.758;2024-01-10T06:33:42;103081.56;;;-8.96;56.89
5651;BME280;40241;52.684;9.758;2024-01-10T06:36:07;103074.66;;;-8.97;57.01
5651;BME280;40241;52.684;9.758;2024-01-10T06:38:33;103086.94;;;-8.96;57.21
5651;BME280;40241;52.684;9.758;2024-01-10T06:40:58;103087.09;;;-8.92;57.14
5651;BME280;40241;52.684;9.758;2024-01-10T06:43:23;103089.63;;;-8.96;57.18
5651;BME280;40241;52.684;9.758;2024-01-10T06:45:49;103096.25;;;-8.93;57.48
5651;BME280;40241;52.684;9.758;2024-01-10T06:48:14;103098.75;;;-8.88;57.61
5651;BME280;40241;52.684;9.758;2024-01-10T06:50:40;103097.31;;;-8.86;57.38
5651;BME280;40241;52.684;9.758;2024-01-10T06:53:05;103094.31;;;-8.84;57.11
5651;BME280;40241;52.684;9.758;2024-01-10T06:55:31;103088.97;;;-8.93;56.99
5651;BME280;40241;52.684;9.758;2024-01-10T06:57:56;103093.13;;;-9.04;57.09
5651;BME280;40241;52.684;9.758;2024-01-10T07:00:22;103094.59;;;-9.15;57.11
5651;BME280;40241;52.684;9.758;2024-01-10T07:02:48;103087.53;;;-9.19;57.42
5651;BME280;40241;52.684;9.758;2024-01-10T07:05:14;103093.56;;;-9.22;57.61
5651;BME280;40241;52.684;9.758;2024-01-10T07:07:40;103084.56;;;-9.26;57.46
5651;BME280;40241;52.684;9.758;2024-01-10T07:10:05;103087.56;;;-9.28;57.69
5651;BME280;40241;52.684;9.758;2024-01-10T07:12:31;103092.75;;;-9.23;57.76
5651;BME280;40241;52.684;9.758;2024-01-10T07:14:57;103088.31;;;-9.19;57.49
5651;BME280;40241;52.684;9.758;2024-01-10T07:17:22;103095.56;;;-9.19;57.59
5651;BME280;40241;52.684;9.758;2024-01-10T07:19:48;103098.91;;;-9.22;57.59
5651;BME280;40241;52.684;9.758;2024-01-10T07:22:14;103105.53;;;-9.28;57.86
5651;BME280;40241;52.684;9.758;2024-01-10T07:24:39;103100.81;;;-9.31;57.84
5651;BME280;40241;52.684;9.758;2024-01-10T07:27:04;103101.75;;;-9.27;57.79
5651;BME280;40241;52.684;9.758;2024-01-10T07:29:31;103098.59;;;-9.21;58.02
5651;BME280;40241;52.684;9.758;2024-01-10T07:31:57;103103.28;;;-9.18;57.77
5651;BME280;40241;52.684;9.758;2024-01-10T07:34:22;103094.59;;;-9.15;57.90
5651;BME280;40241;52.684;9.758;2024-01-10T07:36:47;103103.28;;;-9.09;57.63
5651;BME280;40241;52.684;9.758;2024-01-10T07:39:12;103098.03;;;-9.06;57.57
5651;BME280;40241;52.684;9.758;2024-01-10T07:41:43;103106.88;;;-9.05;57.72
5651;BME280;40241;52.684;9.758;2024-01-10T07:44:09;103102.94;;;-9.08;58.07
5651;BME280;40241;52.684;9.758;2024-01-10T07:46:35;103107.69;;;-9.13;57.77
5651;BME280;40241;52.684;9.758;2024-01-10T07:49:02;103106.41;;;-9.07;57.82
5651;BME280;40241;52.684;9.758;2024-01-10T07:51:29;103116.19;;;-9.03;57.88
5651;BME280;40241;52.684;9.758;2024-01-10T07:53:54;103121.66;;;-8.99;57.82
5651;BME280;40241;52.684;9.758;2024-01-10T07:56:20;103116.78;;;-8.97;57.82
5651;BME280;40241;52.684;9.758;2024-01-10T07:58:45;103116.91;;;-8.94;57.93
5651;BME280;40241;52.684;9.758;2024-01-10T08:01:10;103114.38;;;-8.90;58.17
5651;BME280;40241;52.684;9.758;2024-01-10T08:03:36;103120.03;;;-8.83;58.04
5651;BME280;40241;52.684;9.758;2024-01-10T08:06:02;103116.03;;;-8.77;57.86
5651;BME280;40241;52.684;9.758;2024-01-10T08:08:28;103114.41;;;-8.69;58.04
5651;BME280;40241;52.684;9.758;2024-01-10T08:10:53;103106.53;;;-8.66;57.96
5651;BME280;40241;52.684;9.758;2024-01-10T08:13:19;103121.19;;;-8.63;57.92
5651;BME280;40241;52.684;9.758;2024-01-10T08:15:44;103127.59;;;-8.56;58.01
5651;BME280;40241;52.684;9.758;2024-01-10T08:18:09;103116.34;;;-8.49;57.96
5651;BME280;40241;52.684;9.758;2024-01-10T08:20:35;103112.81;;;-8.41;57.85
5651;BME280;40241;52.684;9.758;2024-01-10T08:23:00;103111.19;;;-8.34;57.80
5651;BME280;40241;52.684;9.758;2024-01-10T08:25:26;103103.25;;;-8.30;57.87
5651;BME280;40241;52.684;9.758;2024-01-10T08:27:51;103107.06;;;-8.31;57.76
5651;BME280;40241;52.684;9.758;2024-01-10T08:30:22;103105.50;;;-8.32;57.53
5651;BME280;40241;52.684;9.758;2024-01-10T08:32:47;103096.34;;;-8.31;57.67
5651;BME280;40241;52.684;9.758;2024-01-10T08:35:13;103093.31;;;-8.30;58.15
5651;BME280;40241;52.684;9.758;2024-01-10T08:37:39;103097.25;;;-8.27;58.03
5651;BME280;40241;52.684;9.758;2024-01-10T08:40:11;103103.53;;;-8.23;57.91
5651;BME280;40241;52.684;9.758;2024-01-10T08:42:39;103108.38;;;-8.17;57.90
5651;BME280;40241;52.684;9.758;2024-01-10T08:45:05;103099.97;;;-8.15;58.08
5651;BME280;40241;52.684;9.758;2024-01-10T08:47:31;103107.19;;;-8.07;58.11
5651;BME280;40241;52.684;9.758;2024-01-10T08:49:58;103105.88;;;-8.01;58.02
5651;BME280;40241;52.684;9.758;2024-01-10T08:52:23;103112.31;;;-7.93;58.21
5651;BME280;40241;52.684;9.758;2024-01-10T08:54:49;103123.28;;;-7.86;58.04
5651;BME280;40241;52.684;9.758;2024-01-10T08:57:14;103125.59;;;-7.76;58.08
5651;BME280;40241;52.684;9.758;2024-01-10T08:59:42;103116.31;;;-7.67;58.00
5651;BME280;40241;52.684;9.758;2024-01-10T09:02:07;103114.66;;;-7.59;57.96
5651;BME280;40241;52.684;9.758;2024-01-10T09:04:33;103106.25;;;-7.58;58.04
5651;BME280;40241;52.684;9.758;2024-01-10T09:06:58;103107.94;;;-7.53;58.02
5651;BME280;40241;52.684;9.758;2024-01-10T09:09:23;103110.88;;;-7.46;57.84
5651;BME280;40241;52.684;9.758;2024-01-10T09:11:49;103113.03;;;-7.40;58.02
5651;BME280;40241;52.684;9.758;2024-01-10T09:14:14;103109.34;;;-7.35;58.13
5651;BME280;40241;52.684;9.758;2024-01-10T09:16:40;103101.97;;;-7.26;57.86
5651;BME280;40241;52.684;9.758;2024-01-10T09:19:05;103099.03;;;-7.21;58.02
5651;BME280;40241;52.684;9.758;2024-01-10T09:21:30;103105.09;;;-7.12;58.03
5651;BME280;40241;52.684;9.758;2024-01-10T09:23:56;103104.69;;;-7.02;58.08
5651;BME280;40241;52.684;9.758;2024-01-10T09:26:22;103109.94;;;-6.93;58.04
5651;BME280;40241;52.684;9.758;2024-01-10T09:28:48;103105.47;;;-6.89;57.88
5651;BME280;40241;52.684;9.758;2024-01-10T09:31:13;103112.19;;;-6.83;57.81
5651;BME280;40241;52.684;9.758;2024-01-10T09:33:39;103111.63;;;-6.77;57.72
5651;BME280;40241;52.684;9.758;2024-01-10T09:36:05;103108.72;;;-6.72;57.87
5651;BME280;40241;52.684;9.758;2024-01-10T09:38:37;103110.47;;;-6.64;58.00
5651;BME280;40241;52.684;9.758;2024-01-10T09:41:04;103111.94;;;-6.54;57.95
5651;BME280;40241;52.684;9.758;2024-01-10T09:43:30;103115.16;;;-6.48;57.73
5651;BME280;40241;52.684;9.758;2024-01-10T09:45:57;103110.44;;;-6.39;57.81
5651;BME280;40241;52.684;9.758;2024-01-10T09:48:24;103096.41;;;-6.33;57.67
5651;BME280;40241;52.684;9.758;2024-01-10T09:50:51;103099.09;;;-6.33;57.77
5651;BME280;40241;52.684;9.758;2024-01-10T09:53:22;103093.03;;;-6.30;57.44
5651;BME280;40241;52.684;9.758;2024-01-10T09:55:55;103103.25;;;-6.23;57.77
5651;BME280;40241;52.684;9.758;2024-01-10T09:58:23;103105.66;;;-6.18;57.35
5651;BME280;40241;52.684;9.758;2024-01-10T10:00:50;103107.13;;;-6.09;57.66
5651;BME280;40241;52.684;9.758;2024-01-10T10:03:17;103109.56;;;-6.04;57.61
5651;BME280;40241;52.684;9.758;2024-01-10T10:05:43;103103.16;;;-5.99;57.69
5651;BME280;40241;52.684;9.758;2024-01-10T10:08:11;103103.59;;;-5.97;57.63
5651;BME280;40241;52.684;9.758;2024-01-10T10:10:37;103089.09;;;-5.93;57.52
5651;BME280;40241;52.684;9.758;2024-01-10T10:13:08;103092.66;;;-5.89;57.33
5651;BME280;40241;52.684;9.758;2024-01-10T10:15:36;103092.06;;;-5.82;57.30
5651;BME280;40241;52.684;9.758;2024-01-10T10:18:01;103088.34;;;-5.78;57.24
5651;BME280;40241;52.684;9.758;2024-01-10T10:20:29;103078.19;;;-5.68;57.25
5651;BME280;40241;52.684;9.758;2024-01-10T10:23:04;103081.06;;;-5.61;57.10
5651;BME280;40241;52.684;9.758;2024-01-10T10:25:32;103079.34;;;-5.54;56.95
5651;BME280;40241;52.684;9.758;2024-01-10T10:27:59;103072.19;;;-5.46;57.41
5651;BME280;40241;52.684;9.758;2024-01-10T10:30:25;103064.09;;;-5.46;56.94
5651;BME280;40241;52.684;9.758;2024-01-10T10:32:51;103082.38;;;-5.40;56.69
5651;BME280;40241;52.684;9.758;2024-01-10T10:35:18;103062.22;;;-5.30;57.06
5651;BME280;40241;52.684;9.758;2024-01-10T10:37:45;103065.53;;;-5.21;57.33
5651;BME280;40241;52.684;9.758;2024-01-10T10:40:10;103062.56;;;-5.16;57.32
5651;BME280;40241;52.684;9.758;2024-01-10T10:42:40;103059.16;;;-5.13;56.52
5651;BME280;40241;52.684;9.758;2024-01-10T10:45:10;103056.56;;;-5.10;56.64
5651;BME280;40241;52.684;9.758;2024-01-10T10:47:38;103056.56;;;-5.10;56.73
5651;BME280;40241;52.684;9.758;2024-01-10T10:50:12;103048.88;;;-5.08;56.41
5651;BME280;40241;52.684;9.758;2024-01-10T10:52:42;103054.00;;;-5.03;56.73
5651;BME280;40241;52.684;9.758;2024-01-10T10:55:10;103051.41;;;-4.99;55.95
5651;BME280;40241;52.684;9.758;2024-01-10T10:57:38;103055.75;;;-4.94;56.22
5651;BME280;40241;52.684;9.758;2024-01-10T11:00:05;103050.47;;;-4.87;56.14
5651;BME280;40241;52.684;9.758;2024-01-10T11:02:32;103058.06;;;-4.77;56.33
5651;BME280;40241;52.684;9.758;2024-01-10T11:04:58;103053.25;;;-4.68;56.47
5651;BME280;40241;52.684;9.758;2024-01-10T11:07:24;103042.56;;;-4.61;55.04
5651;BME280;40241;52.684;9.758;2024-01-10T11:09:50;103043.88;;;-4.55;55.78
5651;BME280;40241;52.684;9.758;2024-01-10T11:12:39;103042.81;;;-4.51;55.54
5651;BME280;40241;52.684;9.758;2024-01-10T11:18:08;103042.31;;;-4.37;55.60
5651;BME280;40241;52.684;9.758;2024-01-10T11:20:59;103043.19;;;-4.33;54.95
5651;BME280;40241;52.684;9.758;2024-01-10T11:23:39;103040.59;;;-4.26;55.65
5651;BME280;40241;52.684;9.758;2024-01-10T11:26:07;103028.44;;;-4.16;56.00
5651;BME280;40241;52.684;9.758;2024-01-10T11:28:33;103036.72;;;-4.09;55.59
5651;BME280;40241;52.684;9.758;2024-01-10T11:30:58;103039.19;;;-4.01;55.80
5651;BME280;40241;52.684;9.758;2024-01-10T11:33:30;103023.44;;;-3.95;55.43
5651;BME280;40241;52.684;9.758;2024-01-10T11:41:06;103028.47;;;-3.75;55.43
5651;BME280;40241;52.684;9.758;2024-01-10T11:43:33;103031.34;;;-3.64;55.29
5651;BME280;40241;52.684;9.758;2024-01-10T11:46:00;103038.84;;;-3.54;55.28
5651;BME280;40241;52.684;9.758;2024-01-10T11:48:27;103032.84;;;-3.44;55.42
5651;BME280;40241;52.684;9.758;2024-01-10T11:50:53;103028.81;;;-3.31;55.47
5651;BME280;40241;52.684;9.758;2024-01-10T11:53:38;103028.69;;;-3.15;54.64
5651;BME280;40241;52.684;9.758;2024-01-10T11:56:15;103019.97;;;-3.02;55.30
5651;BME280;40241;52.684;9.758;2024-01-10T12:01:27;103020.81;;;-2.71;54.84
5651;BME280;40241;52.684;9.758;2024-01-10T12:03:52;103007.00;;;-2.59;54.48
5651;BME280;40241;52.684;9.758;2024-01-10T12:06:21;103011.75;;;-2.49;54.37
5651;BME280;40241;52.684;9.758;2024-01-10T12:08:46;103007.19;;;-2.45;54.29
5651;BME280;40241;52.684;9.758;2024-01-10T12:11:11;103006.75;;;-2.47;54.13
5651;BME280;40241;52.684;9.758;2024-01-10T12:13:37;103004.44;;;-2.49;54.53
5651;BME280;40241;52.684;9.758;2024-01-10T12:16:03;102993.88;;;-2.57;53.67
5651;BME280;40241;52.684;9.758;2024-01-10T12:18:28;103009.34;;;-2.58;54.24
5651;BME280;40241;52.684;9.758;2024-01-10T12:20:54;103009.00;;;-2.56;53.49
5651;BME280;40241;52.684;9.758;2024-01-10T12:23:19;103007.41;;;-2.57;53.95
5651;BME280;40241;52.684;9.758;2024-01-10T12:25:44;103009.75;;;-2.56;53.99
5651;BME280;40241;52.684;9.758;2024-01-10T12:28:10;103009.34;;;-2.58;54.00
5651;BME280;40241;52.684;9.758;2024-01-10T12:30:35;103005.88;;;-2.58;53.32
5651;BME280;40241;52.684;9.758;2024-01-10T12:33:01;103001.28;;;-2.54;53.58
5651;BME280;40241;52.684;9.758;2024-01-10T12:35:26;103002.88;;;-2.50;53.60
5651;BME280;40241;52.684;9.758;2024-01-10T12:37:55;102994.34;;;-2.52;52.92
5651;BME280;40241;52.684;9.758;2024-01-10T12:40:21;103008.00;;;-2.41;53.44
5651;BME280;40241;52.684;9.758;2024-01-10T12:42:47;102993.00;;;-2.32;53.72
5651;BME280;40241;52.684;9.758;2024-01-10T12:45:21;103000.91;;;-2.20;52.97
5651;BME280;40241;52.684;9.758;2024-01-10T12:47:47;102990.53;;;-2.11;52.72
5651;BME280;40241;52.684;9.758;2024-01-10T12:50:12;102987.94;;;-2.00;53.67
5651;BME280;40241;52.684;9.758;2024-01-10T12:52:38;102991.13;;;-1.91;53.68
5651;BME280;40241;52.684;9.758;2024-01-10T12:55:05;102983.41;;;-1.85;53.18
5651;BME280;40241;52.684;9.758;2024-01-10T12:57:31;102989.66;;;-1.81;52.74
5651;BME280;40241;52.684;9.758;2024-01-10T12:59:56;102991.97;;;-1.83;53.35
5651;BME280;40241;52.684;9.758;2024-01-10T13:02:22;102989.63;;;-1.85;52.84
5651;BME280;40241;52.684;9.758;2024-01-10T13:04:47;102991.97;;;-1.83;52.94
5651;BME280;40241;52.684;9.758;2024-01-10T13:07:13;102980.28;;;-1.87;52.97